createdAt,value
2023-05-03T00:00:51.415Z,10.53
2023-05-03T00:03:17.886Z,10.13
2023-05-03T00:05:44.499Z,9.50
2023-05-03T00:08:11.085Z,9.43
2023-05-03T00:10:37.524Z,9.93
2023-05-03T00:13:03.985Z,8.60
2023-05-03T00:15:30.538Z,9.80
2023-05-03T00:17:57.101Z,9.13
2023-05-03T00:20:25.077Z,11.37
2023-05-03T00:22:51.820Z,10.70
2023-05-03T00:25:18.256Z,10.00
2023-05-03T00:27:44.732Z,10.83
2023-05-03T00:30:11.785Z,10.70
2023-05-03T00:32:38.436Z,11.70
2023-05-03T00:35:05.502Z,10.77
2023-05-03T00:37:32.548Z,11.63
2023-05-03T00:39:59.019Z,14.43
2023-05-03T00:42:25.666Z,11.27
2023-05-03T00:44:53.348Z,12.83
2023-05-03T00:47:20.841Z,12.57
2023-05-03T00:49:47.395Z,13.03
2023-05-03T00:52:14.187Z,12.23
2023-05-03T00:54:40.750Z,13.77
2023-05-03T00:57:07.382Z,12.57
2023-05-03T00:59:34.579Z,13.70
2023-05-03T01:02:01.952Z,11.00
2023-05-03T01:04:29.244Z,12.33
2023-05-03T01:07:04.093Z,12.87
2023-05-03T01:09:47.783Z,13.83
2023-05-03T01:12:35.632Z,12.80
2023-05-03T01:15:09.585Z,14.50
2023-05-03T01:17:39.652Z,14.00
2023-05-03T01:20:10.774Z,15.27
2023-05-03T01:23:32.938Z,14.70
2023-05-03T01:26:00.137Z,13.73
2023-05-03T01:28:26.746Z,14.87
2023-05-03T01:30:54.421Z,12.60
2023-05-03T01:33:31.881Z,11.60
2023-05-03T01:36:17.068Z,11.70
2023-05-03T01:38:43.958Z,13.07
2023-05-03T01:41:12.052Z,15.00
2023-05-03T01:43:39.123Z,16.67
2023-05-03T01:46:05.661Z,15.10
2023-05-03T01:48:32.195Z,14.43
2023-05-03T01:50:58.673Z,17.77
2023-05-03T01:53:25.161Z,13.53
2023-05-03T01:55:51.597Z,16.40
2023-05-03T01:58:18.606Z,15.77
2023-05-03T02:00:46.328Z,16.73
2023-05-03T02:03:12.843Z,14.10
2023-05-03T02:05:39.385Z,15.07
2023-05-03T02:08:05.860Z,16.67
2023-05-03T02:10:34.110Z,14.57
2023-05-03T02:13:00.634Z,15.60
2023-05-03T02:15:27.123Z,14.33
2023-05-03T02:17:54.204Z,13.60
2023-05-03T02:20:21.118Z,13.37
2023-05-03T02:22:47.715Z,13.67
2023-05-03T02:25:14.173Z,13.70
2023-05-03T02:27:41.079Z,11.00
2023-05-03T02:30:08.162Z,11.80
2023-05-03T02:32:39.932Z,12.43
2023-05-03T02:35:07.583Z,10.60
2023-05-03T02:37:34.649Z,10.90
2023-05-03T02:40:06.404Z,8.47
2023-05-03T02:42:32.993Z,7.93
2023-05-03T02:45:00.634Z,7.27
2023-05-03T02:47:29.023Z,8.07
2023-05-03T02:49:56.072Z,7.00
2023-05-03T02:52:23.749Z,6.77
2023-05-03T02:54:50.463Z,8.20
2023-05-03T02:57:17.194Z,8.50
2023-05-03T02:59:43.808Z,9.63
2023-05-03T03:02:10.452Z,10.17
2023-05-03T03:04:37.788Z,11.50
2023-05-03T03:07:04.273Z,11.90
2023-05-03T03:09:30.772Z,12.33
2023-05-03T03:12:02.785Z,11.73
2023-05-03T03:14:29.862Z,12.70
2023-05-03T03:16:56.481Z,13.20
2023-05-03T03:19:23.261Z,13.70
2023-05-03T03:21:49.771Z,12.17
2023-05-03T03:24:16.254Z,13.90
2023-05-03T03:26:42.791Z,13.13
2023-05-03T03:29:12.647Z,12.70
2023-05-03T03:31:42.203Z,14.43
2023-05-03T03:34:08.694Z,12.97
2023-05-03T03:36:37.023Z,12.87
2023-05-03T03:39:04.972Z,15.07
2023-05-03T03:41:33.756Z,14.20
2023-05-03T03:44:01.041Z,14.67
2023-05-03T03:46:27.536Z,14.40
2023-05-03T03:48:56.214Z,14.83
2023-05-03T03:51:25.725Z,13.37
2023-05-03T03:53:52.684Z,14.47
2023-05-03T03:56:21.854Z,14.00
2023-05-03T03:58:50.896Z,13.80
2023-05-03T04:01:17.542Z,13.03
2023-05-03T04:03:47.588Z,14.03
2023-05-03T04:06:14.631Z,12.53
2023-05-03T04:08:41.303Z,14.60
2023-05-03T04:11:15.340Z,13.47
2023-05-03T04:13:50.075Z,13.50
2023-05-03T04:16:17.022Z,12.63
2023-05-03T04:18:44.414Z,13.03
2023-05-03T04:21:11.036Z,12.77
2023-05-03T04:23:38.458Z,13.27
2023-05-03T04:26:10.360Z,13.13
2023-05-03T04:28:45.296Z,13.30
2023-05-03T04:31:12.753Z,12.67
2023-05-03T04:33:39.381Z,11.00
2023-05-03T04:36:06.738Z,11.73
2023-05-03T04:38:35.459Z,13.10
2023-05-03T04:41:03.574Z,11.73
2023-05-03T04:43:30.541Z,12.00
2023-05-03T04:45:57.477Z,13.70
2023-05-03T04:48:26.396Z,11.37
2023-05-03T04:50:53.005Z,14.20
2023-05-03T04:53:21.720Z,12.60
2023-05-03T04:55:56.201Z,14.13
2023-05-03T04:58:22.988Z,12.80
2023-05-03T05:00:50.214Z,13.10
2023-05-03T05:03:23.900Z,12.23
2023-05-03T05:05:51.368Z,13.00
2023-05-03T05:08:18.175Z,11.60
2023-05-03T05:10:49.937Z,13.03
2023-05-03T05:13:21.183Z,12.40
2023-05-03T05:15:47.652Z,12.10
2023-05-03T05:18:14.267Z,14.63
2023-05-03T05:20:41.421Z,13.50
2023-05-03T05:23:08.343Z,13.43
2023-05-03T05:25:35.744Z,13.00
2023-05-03T05:28:03.640Z,13.47
2023-05-03T05:30:30.525Z,12.60
2023-05-03T05:32:57.382Z,14.10
2023-05-03T05:35:24.166Z,13.03
2023-05-03T05:37:50.882Z,13.90
2023-05-03T05:40:17.667Z,13.07
2023-05-03T05:42:49.120Z,13.27
2023-05-03T05:45:18.061Z,14.20
2023-05-03T05:47:45.569Z,12.00
2023-05-03T05:50:18.346Z,13.87
2023-05-03T05:52:52.799Z,13.10
2023-05-03T05:55:21.096Z,12.70
2023-05-03T05:57:48.345Z,14.70
2023-05-03T06:00:17.504Z,12.43
2023-05-03T06:02:45.246Z,12.73
2023-05-03T06:05:16.219Z,12.73
2023-05-03T06:07:42.829Z,12.70
2023-05-03T06:10:09.763Z,13.00
2023-05-03T06:12:37.890Z,12.83
2023-05-03T06:15:08.620Z,13.07
2023-05-03T06:17:37.045Z,12.30
2023-05-03T06:20:04.798Z,13.43
2023-05-03T06:22:31.586Z,12.43
2023-05-03T06:24:58.490Z,13.53
2023-05-03T06:27:25.864Z,12.03
2023-05-03T06:29:53.477Z,14.70
2023-05-03T06:32:21.703Z,11.37
2023-05-03T06:34:49.305Z,12.63
2023-05-03T06:37:17.281Z,13.47
2023-05-03T06:39:44.570Z,12.40
2023-05-03T06:42:11.238Z,11.47
2023-05-03T06:44:39.845Z,12.60
2023-05-03T06:47:06.467Z,11.03
2023-05-03T06:49:32.998Z,11.53
2023-05-03T06:51:59.532Z,11.70
2023-05-03T06:54:26.041Z,10.87
2023-05-03T06:56:52.568Z,11.60
2023-05-03T06:59:19.356Z,11.20
2023-05-03T07:01:46.963Z,10.90
2023-05-03T07:04:13.704Z,12.07
2023-05-03T07:06:52.486Z,11.87
2023-05-03T07:09:35.428Z,10.63
2023-05-03T07:12:08.429Z,11.20
2023-05-03T07:14:34.868Z,10.03
2023-05-03T07:17:01.458Z,10.50
2023-05-03T07:19:27.918Z,9.70
2023-05-03T07:21:54.388Z,11.60
2023-05-03T07:24:20.933Z,11.10
2023-05-03T07:26:49.032Z,10.10
2023-05-03T07:29:15.703Z,10.70
2023-05-03T07:31:42.230Z,9.37
2023-05-03T07:34:08.710Z,9.93
2023-05-03T07:36:35.220Z,10.60
2023-05-03T07:39:01.719Z,10.03
2023-05-03T07:41:28.259Z,9.60
2023-05-03T07:43:55.022Z,10.53
2023-05-03T07:46:21.806Z,8.97
2023-05-03T07:48:48.448Z,10.87
2023-05-03T07:51:15.028Z,9.63
2023-05-03T07:53:41.637Z,8.67
2023-05-03T07:56:08.127Z,8.20
2023-05-03T07:58:40.083Z,10.17
2023-05-03T08:01:07.300Z,9.13
2023-05-03T08:03:33.945Z,9.80
2023-05-03T08:06:00.779Z,9.23
2023-05-03T08:08:27.781Z,9.53
2023-05-03T08:10:54.390Z,10.53
2023-05-03T08:13:22.611Z,9.50
2023-05-03T08:15:49.926Z,9.40
2023-05-03T08:18:16.750Z,9.40
2023-05-03T08:20:44.895Z,9.13
2023-05-03T08:23:11.358Z,9.73
2023-05-03T08:25:37.880Z,10.40
2023-05-03T08:28:04.614Z,9.00
2023-05-03T08:30:31.501Z,8.43
2023-05-03T08:32:58.095Z,9.43
2023-05-03T08:35:25.299Z,9.43
2023-05-03T08:37:51.766Z,8.93
2023-05-03T08:40:22.268Z,8.80
2023-05-03T08:42:50.082Z,9.37
2023-05-03T08:45:17.038Z,9.10
2023-05-03T08:47:45.485Z,8.67
2023-05-03T08:50:13.819Z,8.17
2023-05-03T08:52:42.420Z,8.20
2023-05-03T08:55:10.561Z,8.70
2023-05-03T08:57:37.414Z,8.40
2023-05-03T09:00:06.607Z,7.77
2023-05-03T09:02:35.069Z,8.33
2023-05-03T09:05:01.862Z,8.37
2023-05-03T09:07:29.498Z,8.63
2023-05-03T09:09:57.252Z,7.77
2023-05-03T09:12:37.918Z,7.87
2023-05-03T09:15:06.382Z,7.63
2023-05-03T09:17:33.412Z,8.07
2023-05-03T09:20:00.534Z,7.60
2023-05-03T09:22:28.607Z,6.80
2023-05-03T09:24:57.166Z,7.03
2023-05-03T09:27:24.789Z,6.87
2023-05-03T09:29:52.054Z,7.60
2023-05-03T09:32:19.039Z,5.73
2023-05-03T09:34:46.030Z,7.40
2023-05-03T09:37:15.991Z,7.07
2023-05-03T09:40:05.798Z,6.90
2023-05-03T09:42:32.307Z,6.57
2023-05-03T09:44:58.768Z,7.60
2023-05-03T09:47:25.526Z,7.93
2023-05-03T09:49:52.289Z,6.43
2023-05-03T09:52:19.809Z,8.23
2023-05-03T09:54:46.758Z,7.30
2023-05-03T09:57:14.649Z,7.20
2023-05-03T09:59:42.188Z,8.43
2023-05-03T10:02:09.039Z,6.53
2023-05-03T10:04:43.632Z,7.90
2023-05-03T10:07:15.243Z,7.33
2023-05-03T10:09:47.213Z,6.37
2023-05-03T10:12:17.129Z,7.47
2023-05-03T10:14:45.611Z,8.37
2023-05-03T10:17:16.543Z,7.77
2023-05-03T10:19:47.664Z,8.30
2023-05-03T10:22:14.238Z,8.87
2023-05-03T10:25:07.070Z,9.77
2023-05-03T10:27:51.677Z,9.60
2023-05-03T10:30:29.196Z,9.53
2023-05-03T10:32:55.807Z,10.07
2023-05-03T10:35:26.746Z,10.70
2023-05-03T10:37:54.106Z,9.87
2023-05-03T10:40:22.294Z,10.37
2023-05-03T10:42:54.536Z,9.70
2023-05-03T10:45:28.750Z,10.40
2023-05-03T10:48:16.436Z,10.93
2023-05-03T10:50:43.497Z,11.00
2023-05-03T10:53:35.972Z,11.23
2023-05-03T10:56:09.528Z,11.33
2023-05-03T10:58:44.027Z,11.33
2023-05-03T11:01:12.797Z,11.90
2023-05-03T11:03:56.042Z,11.00
2023-05-03T11:06:36.717Z,11.20
2023-05-03T11:09:06.463Z,9.07
2023-05-03T11:11:34.750Z,10.17
2023-05-03T11:14:01.435Z,10.50
2023-05-03T11:16:28.510Z,10.30
2023-05-03T11:18:55.403Z,10.27
2023-05-03T11:21:22.818Z,10.10
2023-05-03T11:23:49.361Z,9.17
2023-05-03T11:26:16.171Z,9.57
2023-05-03T11:28:43.608Z,8.40
2023-05-03T11:31:11.217Z,8.97
2023-05-03T11:33:38.543Z,9.23
2023-05-03T11:36:06.765Z,9.10
2023-05-03T11:38:34.121Z,9.07
2023-05-03T11:41:01.577Z,8.90
2023-05-03T11:43:28.957Z,8.77
2023-05-03T11:45:57.933Z,8.80
2023-05-03T11:48:26.198Z,8.43
2023-05-03T11:50:57.093Z,7.27
2023-05-03T11:53:24.606Z,7.30
2023-05-03T11:55:54.051Z,6.60
2023-05-03T11:58:23.382Z,5.90
2023-05-03T12:00:51.232Z,6.30
2023-05-03T12:03:31.947Z,6.90
2023-05-03T12:06:00.128Z,7.27
2023-05-03T12:08:32.306Z,6.67
2023-05-03T12:11:03.361Z,6.10
2023-05-03T12:13:37.572Z,6.60
2023-05-03T12:16:12.469Z,6.20
2023-05-03T12:18:55.765Z,6.40
2023-05-03T12:23:55.689Z,5.97
2023-05-03T12:26:23.288Z,6.10
2023-05-03T12:28:50.007Z,6.63
2023-05-03T12:31:18.219Z,5.37
2023-05-03T12:34:03.512Z,5.30
2023-05-03T12:36:37.363Z,5.53
2023-05-03T12:39:09.345Z,5.23
2023-05-03T12:44:09.917Z,5.20
2023-05-03T12:46:38.227Z,6.20
2023-05-03T12:49:07.620Z,5.70
2023-05-03T12:51:35.382Z,6.40
2023-05-03T12:54:02.664Z,6.10
2023-05-03T12:56:32.544Z,5.50
2023-05-03T12:59:23.223Z,6.00
2023-05-03T13:03:08.483Z,4.33
2023-05-03T13:04:56.913Z,4.93
2023-05-03T13:07:28.065Z,4.67
2023-05-03T13:12:25.593Z,5.20
2023-05-03T13:14:53.529Z,4.40
2023-05-03T13:17:22.543Z,4.70
2023-05-03T13:19:50.077Z,4.67
2023-05-03T13:22:17.282Z,4.80
2023-05-03T13:24:45.426Z,5.10
2023-05-03T13:27:12.517Z,5.30
2023-05-03T13:29:39.409Z,5.13
2023-05-03T13:32:06.333Z,4.13
2023-05-03T13:34:32.895Z,4.50
2023-05-03T13:36:59.382Z,4.63
2023-05-03T13:39:26.183Z,5.40
2023-05-03T13:41:52.687Z,5.30
2023-05-03T13:44:19.430Z,4.60
2023-05-03T13:46:46.470Z,4.33
2023-05-03T13:49:13.452Z,4.40
2023-05-03T13:51:39.906Z,4.57
2023-05-03T13:54:07.101Z,4.30
2023-05-03T13:56:34.358Z,3.90
2023-05-03T13:59:01.158Z,5.27
2023-05-03T14:01:28.892Z,4.40
2023-05-03T14:03:55.794Z,4.93
2023-05-03T14:06:23.496Z,3.93
2023-05-03T14:08:50.349Z,5.50
2023-05-03T14:11:18.445Z,7.33
2023-05-03T14:13:56.290Z,8.40
2023-05-03T14:18:54.145Z,8.80
2023-05-03T14:21:20.785Z,9.27
2023-05-03T14:23:50.997Z,7.53
2023-05-03T14:26:18.191Z,8.57
2023-05-03T14:28:44.714Z,10.00
2023-05-03T14:31:11.494Z,9.50
2023-05-03T14:33:38.003Z,9.20
2023-05-03T14:36:07.553Z,9.80
2023-05-03T14:38:34.547Z,8.77
2023-05-03T14:41:01.087Z,8.10
2023-05-03T14:43:28.302Z,7.80
2023-05-03T14:45:55.243Z,8.23
2023-05-03T14:48:21.870Z,8.70
2023-05-03T14:50:49.489Z,8.50
2023-05-03T14:53:16.376Z,8.80
2023-05-03T14:55:43.089Z,8.57
2023-05-03T14:58:10.188Z,8.37
2023-05-03T15:00:40.862Z,9.27
2023-05-03T15:03:11.436Z,8.00
2023-05-03T15:05:48.875Z,9.17
2023-05-03T15:08:17.000Z,8.17
2023-05-03T15:10:47.925Z,8.40
2023-05-03T15:13:16.467Z,7.53
2023-05-03T15:15:43.875Z,7.80
2023-05-03T15:18:11.592Z,7.47
2023-05-03T15:20:38.874Z,7.27
2023-05-03T15:23:05.642Z,6.43
2023-05-03T15:25:32.770Z,6.33
2023-05-03T15:28:01.878Z,6.90
2023-05-03T15:30:31.167Z,6.40
2023-05-03T15:32:58.127Z,6.30
2023-05-03T15:35:24.880Z,5.97
2023-05-03T15:37:51.488Z,5.97
2023-05-03T15:40:20.222Z,6.07
2023-05-03T15:42:46.674Z,5.13
2023-05-03T15:45:14.068Z,5.30
2023-05-03T15:47:40.798Z,5.40
2023-05-03T15:50:08.403Z,5.77
2023-05-03T15:52:35.329Z,5.03
2023-05-03T15:55:02.088Z,4.77
2023-05-03T15:57:30.166Z,7.43
2023-05-03T15:59:57.151Z,6.17
2023-05-03T16:02:23.919Z,4.60
2023-05-03T16:04:50.782Z,6.00
2023-05-03T16:07:17.707Z,5.80
2023-05-03T16:09:44.249Z,5.73
2023-05-03T16:12:11.062Z,6.73
2023-05-03T16:14:37.655Z,6.03
2023-05-03T16:17:04.139Z,6.37
2023-05-03T16:19:31.818Z,5.67
2023-05-03T16:21:58.369Z,6.13
2023-05-03T16:24:24.938Z,6.07
2023-05-03T16:26:52.801Z,5.10
2023-05-03T16:29:19.588Z,6.33
2023-05-03T16:31:46.890Z,4.73
2023-05-03T16:34:13.979Z,4.60
2023-05-03T16:36:44.041Z,4.03
2023-05-03T16:39:11.620Z,5.43
2023-05-03T16:41:38.685Z,4.43
2023-05-03T16:44:06.118Z,4.70
2023-05-03T16:46:34.384Z,4.80
2023-05-03T16:49:00.819Z,4.33
2023-05-03T16:51:27.927Z,4.60
2023-05-03T16:53:54.731Z,4.90
2023-05-03T16:56:22.173Z,4.50
2023-05-03T16:58:48.725Z,4.30
2023-05-03T17:01:15.432Z,4.40
2023-05-03T17:03:44.692Z,4.47
2023-05-03T17:06:12.634Z,3.13
2023-05-03T17:08:39.740Z,4.00
2023-05-03T17:11:08.489Z,3.60
2023-05-03T17:13:35.669Z,5.30
2023-05-03T17:16:08.579Z,4.20
2023-05-03T17:18:35.839Z,4.10
2023-05-03T17:21:02.866Z,3.77
2023-05-03T17:23:29.407Z,3.80
2023-05-03T17:25:59.224Z,4.27
2023-05-03T17:28:26.676Z,4.57
2023-05-03T17:30:54.172Z,4.23
2023-05-03T17:33:21.349Z,4.30
2023-05-03T17:35:47.803Z,4.10
2023-05-03T17:38:14.566Z,4.93
2023-05-03T17:40:43.110Z,4.83
2023-05-03T17:43:11.424Z,4.20
2023-05-03T17:45:41.406Z,4.87
2023-05-03T17:48:07.904Z,4.50
2023-05-03T17:50:34.550Z,4.47
2023-05-03T17:53:01.175Z,4.20
2023-05-03T17:55:27.824Z,5.40
2023-05-03T17:57:54.517Z,4.27
2023-05-03T18:00:22.413Z,4.20
2023-05-03T18:02:48.965Z,4.23
2023-05-03T18:05:18.156Z,4.60
2023-05-03T18:07:44.778Z,6.67
2023-05-03T18:10:17.225Z,5.03
2023-05-03T18:12:43.716Z,4.47
2023-05-03T18:15:11.261Z,5.77
2023-05-03T18:17:37.775Z,4.90
2023-05-03T18:20:06.342Z,5.43
2023-05-03T18:22:33.199Z,5.20
2023-05-03T18:25:01.930Z,5.00
2023-05-03T18:27:28.808Z,5.00
2023-05-03T18:29:55.331Z,5.37
2023-05-03T18:32:23.316Z,5.47
2023-05-03T18:34:49.777Z,5.40
2023-05-03T18:37:16.206Z,5.57
2023-05-03T18:39:42.753Z,5.30
2023-05-03T18:42:10.089Z,5.10
2023-05-03T18:44:38.406Z,5.40
2023-05-03T18:47:05.172Z,3.83
2023-05-03T18:49:31.681Z,5.37
2023-05-03T18:51:58.150Z,5.17
2023-05-03T18:54:24.616Z,5.07
2023-05-03T18:56:51.705Z,6.20
2023-05-03T18:59:18.359Z,5.90
2023-05-03T19:01:44.850Z,5.80
2023-05-03T19:04:11.377Z,5.60
2023-05-03T19:06:37.909Z,4.90
2023-05-03T19:09:04.318Z,4.30
2023-05-03T19:11:30.835Z,5.57
2023-05-03T19:13:57.281Z,4.43
2023-05-03T19:16:23.800Z,5.17
2023-05-03T19:18:50.245Z,6.23
2023-05-03T19:21:17.390Z,5.40
2023-05-03T19:23:44.360Z,5.00
2023-05-03T19:26:10.938Z,5.23
2023-05-03T19:28:37.551Z,5.93
2023-05-03T19:31:07.154Z,5.90
2023-05-03T19:33:33.866Z,6.10
2023-05-03T19:36:06.403Z,5.73
2023-05-03T19:38:35.611Z,6.03
2023-05-03T19:41:08.088Z,5.93
2023-05-03T19:43:34.732Z,5.10
2023-05-03T19:46:02.935Z,6.37
2023-05-03T19:48:29.427Z,5.53
2023-05-03T19:50:55.964Z,5.50
2023-05-03T19:53:22.397Z,6.27
2023-05-03T19:55:59.642Z,6.60
2023-05-03T19:58:26.627Z,6.50
2023-05-03T20:00:54.117Z,5.90
2023-05-03T20:03:22.737Z,6.50
2023-05-03T20:05:49.445Z,5.80
2023-05-03T20:08:15.922Z,6.20
2023-05-03T20:10:44.708Z,5.90
2023-05-03T20:13:12.691Z,6.10
2023-05-03T20:15:39.247Z,6.10
2023-05-03T20:18:06.231Z,6.60
2023-05-03T20:20:32.781Z,5.27
2023-05-03T20:22:59.261Z,6.00
2023-05-03T20:25:25.882Z,6.53
2023-05-03T20:27:52.480Z,5.93
2023-05-03T20:30:19.032Z,6.10
2023-05-03T20:32:45.502Z,5.37
2023-05-03T20:35:12.308Z,5.33
2023-05-03T20:37:38.980Z,5.67
2023-05-03T20:40:06.536Z,7.00
2023-05-03T20:42:33.143Z,6.23
2023-05-03T20:44:59.752Z,6.30
2023-05-03T20:47:27.570Z,6.07
2023-05-03T20:49:54.018Z,6.67
2023-05-03T20:52:21.120Z,6.50
2023-05-03T20:54:47.626Z,6.00
2023-05-03T20:57:15.813Z,5.90
2023-05-03T20:59:43.812Z,6.00
2023-05-03T21:02:10.279Z,6.97
2023-05-03T21:04:36.773Z,5.90
2023-05-03T21:07:03.682Z,6.73
2023-05-03T21:09:30.827Z,6.77
2023-05-03T21:11:57.918Z,5.50
2023-05-03T21:14:24.489Z,6.80
2023-05-03T21:16:51.199Z,7.17
2023-05-03T21:19:17.728Z,7.07
2023-05-03T21:21:44.209Z,5.97
2023-05-03T21:24:10.723Z,6.37
2023-05-03T21:26:37.608Z,6.37
2023-05-03T21:29:04.092Z,5.53
2023-05-03T21:31:30.654Z,7.30
2023-05-03T21:33:58.146Z,6.10
2023-05-03T21:36:25.122Z,6.87
2023-05-03T21:38:52.900Z,6.80
2023-05-03T21:41:19.607Z,6.47
2023-05-03T21:43:46.748Z,6.90
2023-05-03T21:46:13.284Z,7.30
2023-05-03T21:48:40.754Z,6.90
2023-05-03T21:51:07.837Z,6.73
2023-05-03T21:53:35.432Z,7.40
2023-05-03T21:56:01.940Z,6.80
2023-05-03T21:58:28.469Z,6.37
2023-05-03T22:00:54.912Z,6.70
2023-05-03T22:03:21.502Z,8.13
2023-05-03T22:05:50.314Z,6.03
2023-05-03T22:08:18.384Z,6.27
2023-05-03T22:10:45.379Z,6.33
2023-05-03T22:13:12.296Z,6.37
2023-05-03T22:15:38.792Z,5.17
2023-05-03T22:18:05.507Z,7.10
2023-05-03T22:20:32.204Z,6.10
2023-05-03T22:22:58.652Z,6.67
2023-05-03T22:25:27.066Z,6.50
2023-05-03T22:27:54.292Z,7.10
2023-05-03T22:30:21.077Z,7.30
2023-05-03T22:32:47.772Z,6.70
2023-05-03T22:35:14.916Z,6.00
2023-05-03T22:37:41.617Z,6.73
2023-05-03T22:40:09.384Z,6.20
2023-05-03T22:42:35.936Z,5.77
2023-05-03T22:45:02.398Z,5.70
2023-05-03T22:47:28.923Z,6.83
2023-05-03T22:49:55.817Z,7.90
2023-05-03T22:52:22.310Z,6.93
2023-05-03T22:54:48.885Z,6.60
2023-05-03T22:57:15.720Z,7.93
2023-05-03T22:59:45.004Z,6.27
2023-05-03T23:02:11.669Z,6.90
2023-05-03T23:04:38.109Z,7.27
2023-05-03T23:07:04.596Z,6.80
2023-05-03T23:09:31.050Z,6.80
2023-05-03T23:11:58.777Z,6.63
2023-05-03T23:14:25.300Z,7.27
2023-05-03T23:16:51.888Z,5.97
2023-05-03T23:19:18.400Z,6.20
2023-05-03T23:21:44.835Z,6.50
2023-05-03T23:24:11.441Z,6.70
2023-05-03T23:26:37.882Z,6.90
2023-05-03T23:29:04.927Z,6.43
2023-05-03T23:31:32.935Z,6.93
2023-05-03T23:34:01.110Z,7.30
2023-05-03T23:36:27.845Z,7.07
2023-05-03T23:38:54.337Z,7.37
2023-05-03T23:41:21.705Z,7.90
2023-05-03T23:43:48.291Z,7.27
2023-05-03T23:46:14.795Z,7.63
2023-05-03T23:48:41.320Z,7.70
2023-05-03T23:51:07.796Z,7.87
2023-05-03T23:53:34.248Z,7.50
2023-05-03T23:56:00.699Z,7.67
2023-05-03T23:58:27.134Z,8.10
